Time;durP1;ratioP1;P1;durP2;ratioP2;P2;SDS_P1;SDS_P2;PMS_P1;PMS_P2;Temp;Humidity;BMP_temperature;BMP_pressure;BME280_temperature;BME280_humidity;BME280_pressure;Samples;Min_cycle;Max_cycle;Signal;HPM_P1;HPM_P2
2022/10/14 00:01:19;;;;;;;;;;;10.70;99.90;;;;;;5082537;28;20340;-76
2022/10/14 00:03:45;;;;;;;;;;;10.80;99.90;;;;;;5085813;28;20398;-76
2022/10/14 00:06:12;;;;;;;;;;;10.80;99.90;;;;;;5080711;28;20386;-77
2022/10/14 00:08:38;;;;;;;;;;;10.90;99.90;;;;;;5058929;28;20019;-76
2022/10/14 00:11:05;;;;;;;;;;;10.90;99.90;;;;;;5036777;28;20011;-76
2022/10/14 00:13:31;;;;;;;;;;;10.90;99.90;;;;;;5060666;28;19917;-76
2022/10/14 00:15:56;;;;;;;;;;;10.90;99.90;;;;;;5046894;28;19920;-76
2022/10/14 00:18:22;;;;;;;;;;;10.90;99.90;;;;;;5068791;28;20256;-77
2022/10/14 00:21:01;;;;;;;;;;;10.90;99.90;;;;;;5064088;28;19928;-76
2022/10/14 00:23:26;;;;;;;;;;;10.90;99.90;;;;;;5075923;28;19923;-75
2022/10/14 00:25:52;;;;;;;;;;;10.90;99.90;;;;;;5075179;28;19920;-76
2022/10/14 00:28:18;;;;;;;;;;;10.80;99.90;;;;;;5078574;28;20189;-77
2022/10/14 00:30:53;;;;;;;;;;;10.80;99.90;;;;;;5047127;28;20348;-76
2022/10/14 00:33:19;;;;;;;;;;;10.70;99.90;;;;;;5044062;28;19916;-76
2022/10/14 00:35:51;;;;;;;;;;;10.80;99.90;;;;;;5070913;28;20292;-76
2022/10/14 00:38:17;;;;;;;;;;;10.80;99.90;;;;;;5066306;28;19935;-76
2022/10/14 00:40:42;;;;;;;;;;;10.80;99.90;;;;;;5065520;28;19916;-76
2022/10/14 00:43:09;;;;;;;;;;;10.80;99.90;;;;;;5085140;28;20233;-76
2022/10/14 00:45:34;;;;;;;;;;;10.70;99.90;;;;;;5043432;28;20284;-76
2022/10/14 00:48:00;;;;;;;;;;;10.70;99.90;;;;;;5078720;28;19997;-76
2022/10/14 00:50:25;;;;;;;;;;;10.70;99.90;;;;;;5060441;28;19984;-76
2022/10/14 00:52:51;;;;;;;;;;;10.70;99.90;;;;;;5078051;28;19916;-76
2022/10/14 00:55:17;;;;;;;;;;;10.70;99.90;;;;;;5079685;28;19924;-76
2022/10/14 00:57:43;;;;;;;;;;;10.60;99.90;;;;;;5040712;28;19958;-76
2022/10/14 01:00:11;;;;;;;;;;;10.60;99.90;;;;;;5073829;28;20356;-76
2022/10/14 01:02:37;;;;;;;;;;;10.60;99.90;;;;;;5073672;28;19916;-76
2022/10/14 01:05:03;;;;;;;;;;;10.60;99.90;;;;;;5044787;28;19970;-76
2022/10/14 01:07:38;;;;;;;;;;;10.60;99.90;;;;;;5058943;28;19924;-76
2022/10/14 01:10:33;;;;;;;;;;;10.60;99.90;;;;;;5052985;28;19947;-76
2022/10/14 01:13:17;;;;;;;;;;;10.60;99.90;;;;;;5021945;28;20348;-76
2022/10/14 01:16:03;;;;;;;;;;;10.60;99.90;;;;;;5064457;28;19965;-76
2022/10/14 01:18:40;;;;;;;;;;;10.60;99.90;;;;;;5061614;28;20271;-76
2022/10/14 01:21:08;;;;;;;;;;;10.60;99.90;;;;;;5044980;28;20419;-77
2022/10/14 01:23:34;;;;;;;;;;;10.60;99.90;;;;;;5048569;28;20287;-76
2022/10/14 01:25:59;;;;;;;;;;;10.60;99.90;;;;;;5043661;28;19979;-76
2022/10/14 01:28:33;;;;;;;;;;;10.60;99.90;;;;;;5060017;28;19932;-76
2022/10/14 01:31:05;;;;;;;;;;;10.70;99.90;;;;;;5053875;28;19936;-76
2022/10/14 01:33:35;;;;;;;;;;;10.70;99.90;;;;;;5063047;28;20091;-77
2022/10/14 01:36:04;;;;;;;;;;;10.70;99.90;;;;;;5055694;28;19970;-76
2022/10/14 01:38:32;;;;;;;;;;;10.70;99.90;;;;;;5070402;28;19996;-76
2022/10/14 01:41:04;;;;;;;;;;;10.70;99.90;;;;;;5046053;28;20035;-76
2022/10/14 01:43:30;;;;;;;;;;;10.80;99.90;;;;;;5045358;28;20189;-76
2022/10/14 01:45:57;;;;;;;;;;;10.80;99.90;;;;;;5043869;28;20365;-76
2022/10/14 01:48:25;;;;;;;;;;;10.80;99.90;;;;;;5028477;28;19925;-76
2022/10/14 01:50:53;;;;;;;;;;;10.80;99.90;;;;;;5036340;28;19916;-76
2022/10/14 01:53:28;;;;;;;;;;;10.80;99.90;;;;;;5065621;28;20298;-76
2022/10/14 01:55:54;;;;;;;;;;;10.80;99.90;;;;;;5046965;28;19912;-76
2022/10/14 01:58:22;;;;;;;;;;;10.80;99.90;;;;;;5078088;28;19917;-76
2022/10/14 02:00:47;;;;;;;;;;;10.80;99.90;;;;;;5051625;28;19943;-76
2022/10/14 02:03:13;;;;;;;;;;;10.80;99.90;;;;;;5081891;28;19958;-76
2022/10/14 02:05:58;;;;;;;;;;;10.80;99.90;;;;;;5075167;28;19919;-77
2022/10/14 02:08:24;;;;;;;;;;;10.80;99.90;;;;;;5063819;28;20251;-76
2022/10/14 02:10:52;;;;;;;;;;;10.90;99.90;;;;;;5075934;28;20448;-76
2022/10/14 02:13:24;;;;;;;;;;;10.80;99.90;;;;;;5076447;28;19923;-76
2022/10/14 02:16:02;;;;;;;;;;;10.80;99.90;;;;;;5076409;28;19916;-76
2022/10/14 02:18:37;;;;;;;;;;;10.80;99.90;;;;;;5079978;28;19967;-76
2022/10/14 02:21:11;;;;;;;;;;;10.80;99.90;;;;;;5061193;28;19936;-76
2022/10/14 02:23:38;;;;;;;;;;;10.70;99.90;;;;;;5043412;28;19971;-76
2022/10/14 02:26:04;;;;;;;;;;;10.70;99.90;;;;;;5049371;28;20108;-76
2022/10/14 02:28:31;;;;;;;;;;;10.70;99.90;;;;;;5044105;28;20470;-77
2022/10/14 02:30:58;;;;;;;;;;;10.70;99.90;;;;;;5056042;28;19916;-76
2022/10/14 02:33:27;;;;;;;;;;;10.70;99.90;;;;;;5078819;28;20439;-77
2022/10/14 02:35:53;;;;;;;;;;;10.70;99.90;;;;;;5043452;28;19916;-76
2022/10/14 02:38:19;;;;;;;;;;;10.70;99.90;;;;;;5063208;28;19946;-76
2022/10/14 02:40:47;;;;;;;;;;;10.60;99.90;;;;;;5065038;28;19999;-76
2022/10/14 02:43:13;;;;;;;;;;;10.70;99.90;;;;;;5064250;28;20367;-77
2022/10/14 02:45:39;;;;;;;;;;;10.60;99.90;;;;;;5055998;28;19938;-76
2022/10/14 02:48:07;;;;;;;;;;;10.70;99.90;;;;;;5056608;28;20313;-76
2022/10/14 02:50:32;;;;;;;;;;;10.70;99.90;;;;;;5046848;28;20000;-76
2022/10/14 02:52:58;;;;;;;;;;;10.70;99.90;;;;;;5054192;28;20048;-77
2022/10/14 02:55:23;;;;;;;;;;;10.70;99.90;;;;;;5063396;28;19920;-77
2022/10/14 02:57:49;;;;;;;;;;;10.60;99.90;;;;;;5082388;28;20393;-76
2022/10/14 03:00:15;;;;;;;;;;;10.60;99.90;;;;;;5083080;28;19951;-76
2022/10/14 03:02:41;;;;;;;;;;;10.60;99.90;;;;;;5073102;28;20011;-76
2022/10/14 03:05:07;;;;;;;;;;;10.50;99.90;;;;;;5049305;28;20082;-76
2022/10/14 03:07:32;;;;;;;;;;;10.50;99.90;;;;;;5071137;28;20423;-76
2022/10/14 03:09:58;;;;;;;;;;;10.40;99.90;;;;;;5056692;28;19940;-76
2022/10/14 03:12:24;;;;;;;;;;;10.40;99.90;;;;;;5065316;28;19917;-76
2022/10/14 03:14:49;;;;;;;;;;;10.40;99.90;;;;;;5062773;28;20428;-76
2022/10/14 03:17:15;;;;;;;;;;;10.30;99.90;;;;;;5077713;28;19913;-76
2022/10/14 03:19:40;;;;;;;;;;;10.30;99.90;;;;;;5049345;28;20259;-76
2022/10/14 03:22:06;;;;;;;;;;;10.30;99.90;;;;;;5058059;28;19916;-76
2022/10/14 03:24:31;;;;;;;;;;;10.30;99.90;;;;;;5084469;28;19912;-76
2022/10/14 03:26:57;;;;;;;;;;;10.20;99.90;;;;;;5062867;28;20246;-76
2022/10/14 03:29:23;;;;;;;;;;;10.20;99.90;;;;;;5061687;28;19978;-76
2022/10/14 03:31:48;;;;;;;;;;;10.20;99.90;;;;;;5074991;28;20449;-76
2022/10/14 03:34:14;;;;;;;;;;;10.20;99.90;;;;;;5083302;28;20018;-77
2022/10/14 03:36:39;;;;;;;;;;;10.20;99.90;;;;;;5048144;28;19919;-77
2022/10/14 03:39:05;;;;;;;;;;;10.30;99.90;;;;;;5062691;28;19919;-77
2022/10/14 03:41:30;;;;;;;;;;;10.20;99.90;;;;;;5062030;28;19955;-76
2022/10/14 03:43:56;;;;;;;;;;;10.20;99.90;;;;;;5062454;28;20007;-76
2022/10/14 03:46:21;;;;;;;;;;;10.20;99.90;;;;;;5062457;28;19999;-76
2022/10/14 03:48:47;;;;;;;;;;;10.20;99.90;;;;;;5063862;28;20017;-76
2022/10/14 03:51:12;;;;;;;;;;;10.20;99.90;;;;;;5062600;28;19969;-76
2022/10/14 03:53:38;;;;;;;;;;;10.20;99.90;;;;;;5045513;28;19983;-76
2022/10/14 03:56:03;;;;;;;;;;;10.20;99.90;;;;;;5060060;28;20718;-76
2022/10/14 03:58:29;;;;;;;;;;;10.10;99.90;;;;;;5067469;28;19931;-76
2022/10/14 04:00:54;;;;;;;;;;;10.10;99.90;;;;;;5063776;28;19977;-77
2022/10/14 04:03:20;;;;;;;;;;;10.10;99.90;;;;;;5063287;28;20001;-75
2022/10/14 04:05:45;;;;;;;;;;;10.10;99.90;;;;;;5058482;28;19913;-76
2022/10/14 04:08:11;;;;;;;;;;;10.10;99.90;;;;;;5058483;28;19928;-76
2022/10/14 04:10:36;;;;;;;;;;;10.10;99.90;;;;;;5072338;28;20394;-75
2022/10/14 04:13:02;;;;;;;;;;;10.10;99.90;;;;;;5047492;28;20227;-76
2022/10/14 04:15:27;;;;;;;;;;;10.20;99.90;;;;;;5044494;28;19916;-76
2022/10/14 04:17:53;;;;;;;;;;;10.20;99.90;;;;;;5062061;28;19923;-76
2022/10/14 04:20:18;;;;;;;;;;;10.20;99.90;;;;;;5067378;28;20015;-76
2022/10/14 04:22:44;;;;;;;;;;;10.20;99.90;;;;;;5046251;28;20380;-76
2022/10/14 04:25:10;;;;;;;;;;;10.20;99.90;;;;;;5078617;28;19927;-75
2022/10/14 04:27:35;;;;;;;;;;;10.20;99.90;;;;;;5063692;28;19928;-76
2022/10/14 04:30:00;;;;;;;;;;;10.20;99.90;;;;;;5050205;28;19924;-76
2022/10/14 04:32:26;;;;;;;;;;;10.20;99.90;;;;;;5082345;28;19915;-76
2022/10/14 04:34:53;;;;;;;;;;;10.20;99.90;;;;;;5065918;28;20312;-76
2022/10/14 04:37:19;;;;;;;;;;;10.20;99.90;;;;;;5054434;28;19916;-76
2022/10/14 04:39:44;;;;;;;;;;;10.20;99.90;;;;;;5065304;28;19912;-77
2022/10/14 04:42:10;;;;;;;;;;;10.20;99.90;;;;;;5067071;28;20046;-76
2022/10/14 04:44:35;;;;;;;;;;;10.20;99.90;;;;;;5075039;28;19917;-76
2022/10/14 04:47:01;;;;;;;;;;;10.10;99.90;;;;;;5077541;28;19916;-76
2022/10/14 04:49:26;;;;;;;;;;;10.10;99.90;;;;;;5084676;28;19980;-76
2022/10/14 04:51:52;;;;;;;;;;;10.00;99.90;;;;;;5066191;28;19949;-76
2022/10/14 04:54:17;;;;;;;;;;;10.00;99.90;;;;;;5056706;28;20006;-76
2022/10/14 04:56:43;;;;;;;;;;;10.00;99.90;;;;;;5076824;28;19923;-76
2022/10/14 04:59:09;;;;;;;;;;;10.00;99.90;;;;;;5067057;28;19916;-77
2022/10/14 05:01:35;;;;;;;;;;;9.90;99.90;;;;;;5067560;28;19912;-76
2022/10/14 05:04:00;;;;;;;;;;;9.90;99.90;;;;;;5054825;28;19916;-76
2022/10/14 05:06:26;;;;;;;;;;;9.90;99.90;;;;;;5064552;28;20408;-76
2022/10/14 05:08:52;;;;;;;;;;;10.00;99.90;;;;;;5063986;28;19924;-76
2022/10/14 05:11:17;;;;;;;;;;;10.00;99.90;;;;;;5064973;28;20442;-76
2022/10/14 05:13:43;;;;;;;;;;;10.00;99.90;;;;;;5071213;28;19916;-76
2022/10/14 05:16:08;;;;;;;;;;;10.00;99.90;;;;;;5059168;28;19917;-76
2022/10/14 05:18:34;;;;;;;;;;;10.00;99.90;;;;;;5066363;28;19961;-76
2022/10/14 05:21:00;;;;;;;;;;;10.00;99.90;;;;;;5046670;28;19985;-76
2022/10/14 05:23:25;;;;;;;;;;;10.00;99.90;;;;;;5068939;28;20428;-76
2022/10/14 05:25:51;;;;;;;;;;;10.00;99.90;;;;;;5064243;28;20003;-76
2022/10/14 05:28:17;;;;;;;;;;;10.00;99.90;;;;;;5063105;28;19930;-77
2022/10/14 05:30:42;;;;;;;;;;;10.00;99.90;;;;;;5077571;28;19966;-76
2022/10/14 05:33:08;;;;;;;;;;;10.00;99.90;;;;;;5077291;28;20047;-77
2022/10/14 05:35:34;;;;;;;;;;;10.00;99.90;;;;;;5063282;28;20431;-76
2022/10/14 05:37:59;;;;;;;;;;;10.10;99.90;;;;;;5062344;28;19924;-75
2022/10/14 05:40:25;;;;;;;;;;;10.10;99.90;;;;;;5055018;28;19920;-77
2022/10/14 05:42:50;;;;;;;;;;;10.10;99.90;;;;;;5048644;28;19917;-76
2022/10/14 05:45:16;;;;;;;;;;;10.10;99.90;;;;;;5044477;28;20003;-76
2022/10/14 05:47:45;;;;;;;;;;;10.10;99.90;;;;;;5049380;28;19929;-77
2022/10/14 05:50:11;;;;;;;;;;;10.10;99.90;;;;;;5056508;28;19917;-76
2022/10/14 05:52:38;;;;;;;;;;;10.10;99.90;;;;;;5049017;28;20276;-76
2022/10/14 05:55:04;;;;;;;;;;;10.10;99.90;;;;;;5054665;28;19959;-76
2022/10/14 05:57:29;;;;;;;;;;;10.10;99.90;;;;;;5044547;28;19959;-76
2022/10/14 05:59:55;;;;;;;;;;;10.10;99.90;;;;;;5051403;28;19924;-76
2022/10/14 06:02:21;;;;;;;;;;;10.00;99.90;;;;;;5060270;28;19920;-76
2022/10/14 06:04:46;;;;;;;;;;;10.00;99.90;;;;;;5061914;28;19922;-76
2022/10/14 06:07:12;;;;;;;;;;;10.00;99.90;;;;;;5042630;28;20269;-76
2022/10/14 06:09:37;;;;;;;;;;;9.90;99.90;;;;;;5063713;28;19916;-76
2022/10/14 06:12:03;;;;;;;;;;;9.90;99.90;;;;;;5061811;28;19916;-76
2022/10/14 06:14:29;;;;;;;;;;;9.90;99.90;;;;;;5076621;28;19918;-77
2022/10/14 06:16:54;;;;;;;;;;;9.90;99.90;;;;;;5060063;28;20006;-77
2022/10/14 06:19:20;;;;;;;;;;;9.90;99.90;;;;;;5062289;28;19916;-76
2022/10/14 06:21:46;;;;;;;;;;;9.90;99.90;;;;;;5044607;28;19932;-76
2022/10/14 06:24:12;;;;;;;;;;;9.90;99.90;;;;;;5064758;28;20007;-76
2022/10/14 06:26:37;;;;;;;;;;;9.90;99.90;;;;;;5061141;28;19967;-76
2022/10/14 06:29:03;;;;;;;;;;;9.90;99.90;;;;;;5044348;28;19998;-77
2022/10/14 06:31:28;;;;;;;;;;;9.90;99.90;;;;;;5059684;28;19916;-76
2022/10/14 06:33:54;;;;;;;;;;;9.80;99.90;;;;;;5043516;28;20047;-77
2022/10/14 06:36:19;;;;;;;;;;;9.80;99.90;;;;;;5044336;28;20003;-77
2022/10/14 06:38:45;;;;;;;;;;;9.80;99.90;;;;;;5061267;28;20328;-76
2022/10/14 06:41:10;;;;;;;;;;;9.80;99.90;;;;;;5041942;28;20379;-76
2022/10/14 06:43:36;;;;;;;;;;;9.80;99.90;;;;;;5040284;28;20228;-76
2022/10/14 06:46:02;;;;;;;;;;;9.80;99.90;;;;;;5061101;28;20410;-77
2022/10/14 06:48:28;;;;;;;;;;;9.80;99.90;;;;;;5045000;28;20410;-77
2022/10/14 06:50:53;;;;;;;;;;;9.80;99.90;;;;;;5033012;28;20566;-77
2022/10/14 06:53:19;;;;;;;;;;;9.80;99.90;;;;;;5060801;28;19916;-75
2022/10/14 06:55:45;;;;;;;;;;;9.90;99.90;;;;;;5045498;28;20409;-77
2022/10/14 06:58:10;;;;;;;;;;;9.90;99.90;;;;;;5034418;28;20339;-77
2022/10/14 07:00:36;;;;;;;;;;;9.90;99.90;;;;;;5053023;28;19927;-77
2022/10/14 07:03:02;;;;;;;;;;;10.00;99.90;;;;;;5050715;28;19916;-76
2022/10/14 07:05:27;;;;;;;;;;;10.00;99.90;;;;;;5078674;28;19920;-77
2022/10/14 07:07:53;;;;;;;;;;;10.10;99.90;;;;;;5077116;28;19924;-77
2022/10/14 07:10:18;;;;;;;;;;;10.20;99.90;;;;;;5074482;28;19934;-77
2022/10/14 07:12:44;;;;;;;;;;;10.20;99.90;;;;;;5056358;28;20365;-77
2022/10/14 07:15:09;;;;;;;;;;;10.30;99.90;;;;;;5044987;28;20285;-77
2022/10/14 07:17:35;;;;;;;;;;;10.30;99.90;;;;;;5043994;28;19916;-77
2022/10/14 07:20:00;;;;;;;;;;;10.40;99.90;;;;;;5046405;28;19916;-77
2022/10/14 07:22:26;;;;;;;;;;;10.40;99.90;;;;;;5032800;28;19916;-77
2022/10/14 07:24:51;;;;;;;;;;;10.40;99.90;;;;;;5058067;28;19916;-77
2022/10/14 07:27:19;;;;;;;;;;;10.40;99.90;;;;;;5032100;28;19944;-76
2022/10/14 07:29:44;;;;;;;;;;;10.50;99.90;;;;;;5080848;28;20278;-77
2022/10/14 07:32:10;;;;;;;;;;;10.60;99.90;;;;;;5065795;28;19923;-77
2022/10/14 07:34:35;;;;;;;;;;;10.70;99.90;;;;;;5071046;28;19923;-77
2022/10/14 07:37:01;;;;;;;;;;;10.80;99.90;;;;;;5050100;28;19978;-77
2022/10/14 07:39:27;;;;;;;;;;;11.00;99.90;;;;;;5063934;28;19923;-77
2022/10/14 07:41:53;;;;;;;;;;;11.10;99.90;;;;;;5043265;28;20015;-76
2022/10/14 07:44:19;;;;;;;;;;;11.30;99.90;;;;;;5045629;28;19995;-76
2022/10/14 07:46:45;;;;;;;;;;;11.40;99.90;;;;;;5065252;28;20093;-76
2022/10/14 07:49:15;;;;;;;;;;;11.50;99.90;;;;;;5080754;28;19920;-77
2022/10/14 07:51:41;;;;;;;;;;;11.70;99.90;;;;;;5047586;28;20022;-77
2022/10/14 07:54:08;;;;;;;;;;;11.80;99.90;;;;;;5065762;28;19916;-77
2022/10/14 07:56:34;;;;;;;;;;;11.80;99.90;;;;;;5044592;28;20394;-76
2022/10/14 07:59:00;;;;;;;;;;;11.80;99.90;;;;;;5063512;28;20130;-77
2022/10/14 08:01:25;;;;;;;;;;;11.90;99.90;;;;;;5065219;28;20081;-76
2022/10/14 08:03:51;;;;;;;;;;;12.00;99.90;;;;;;5066854;28;20326;-77
2022/10/14 08:06:16;;;;;;;;;;;12.20;99.90;;;;;;5065963;28;19963;-77
2022/10/14 08:08:42;;;;;;;;;;;12.20;99.90;;;;;;5060260;28;19924;-77
2022/10/14 08:11:10;;;;;;;;;;;12.20;99.90;;;;;;5047789;28;19932;-77
2022/10/14 08:13:36;;;;;;;;;;;12.10;99.90;;;;;;5043154;28;19924;-77
2022/10/14 08:16:02;;;;;;;;;;;12.00;99.90;;;;;;5072094;28;19916;-76
2022/10/14 08:18:27;;;;;;;;;;;12.00;99.90;;;;;;5065785;28;19927;-77
2022/10/14 08:20:53;;;;;;;;;;;11.90;99.90;;;;;;5056117;28;19924;-76
2022/10/14 08:23:19;;;;;;;;;;;11.90;99.90;;;;;;5056992;28;19920;-76
2022/10/14 08:25:45;;;;;;;;;;;11.80;99.90;;;;;;5056496;28;20021;-77
2022/10/14 08:28:11;;;;;;;;;;;11.80;99.90;;;;;;5038632;28;19936;-77
2022/10/14 08:30:36;;;;;;;;;;;11.70;99.90;;;;;;5055046;28;19983;-77
2022/10/14 08:33:02;;;;;;;;;;;11.80;99.90;;;;;;5053392;28;19924;-77
2022/10/14 08:35:27;;;;;;;;;;;11.80;99.90;;;;;;5054569;28;19974;-76
2022/10/14 08:37:54;;;;;;;;;;;11.80;99.90;;;;;;5044786;28;19923;-77
2022/10/14 08:40:19;;;;;;;;;;;11.80;99.90;;;;;;5052088;28;19916;-76
2022/10/14 08:43:00;;;;;;;;;;;11.90;99.90;;;;;;5083744;28;19916;-77
2022/10/14 08:45:32;;;;;;;;;;;12.00;99.90;;;;;;5079046;28;20310;-76
2022/10/14 08:47:58;;;;;;;;;;;12.20;99.90;;;;;;5080407;28;19924;-77
2022/10/14 08:50:24;;;;;;;;;;;12.30;99.90;;;;;;5064133;28;19962;-77
2022/10/14 08:52:54;;;;;;;;;;;12.40;99.90;;;;;;5054185;28;19916;-77
2022/10/14 08:55:24;;;;;;;;;;;12.40;99.90;;;;;;5067139;28;19963;-77
2022/10/14 08:57:52;;;;;;;;;;;12.40;99.90;;;;;;5077115;28;19941;-77
2022/10/14 09:00:18;;;;;;;;;;;12.30;99.90;;;;;;5059924;28;19924;-77
2022/10/14 09:02:48;;;;;;;;;;;12.30;99.90;;;;;;5057170;28;20293;-77
2022/10/14 09:05:14;;;;;;;;;;;12.20;99.90;;;;;;5042532;28;19917;-77
2022/10/14 09:07:40;;;;;;;;;;;12.30;99.90;;;;;;5044445;28;20508;-76
2022/10/14 09:10:09;;;;;;;;;;;12.40;99.90;;;;;;5044985;28;20155;-77
2022/10/14 09:12:35;;;;;;;;;;;12.50;99.90;;;;;;5079152;28;19943;-77
2022/10/14 09:15:04;;;;;;;;;;;12.70;99.90;;;;;;5055414;28;20307;-76
2022/10/14 09:17:40;;;;;;;;;;;12.90;99.90;;;;;;5048453;28;20002;-76
2022/10/14 09:20:21;;;;;;;;;;;13.20;99.90;;;;;;5067644;28;19913;-77
2022/10/14 09:23:11;;;;;;;;;;;13.60;99.90;;;;;;5046230;28;20379;-77
2022/10/14 09:25:38;;;;;;;;;;;14.40;99.90;;;;;;5067468;28;19951;-77
2022/10/14 09:28:04;;;;;;;;;;;15.30;99.90;;;;;;5053997;28;20955;-77
2022/10/14 09:30:33;;;;;;;;;;;15.70;99.90;;;;;;5053618;28;19916;-77
2022/10/14 09:32:59;;;;;;;;;;;16.10;99.90;;;;;;5061187;28;20303;-77
2022/10/14 09:35:28;;;;;;;;;;;16.40;99.90;;;;;;5080322;28;19912;-77
2022/10/14 09:37:54;;;;;;;;;;;16.50;99.90;;;;;;5044822;28;19916;-77
2022/10/14 09:40:27;;;;;;;;;;;16.60;99.90;;;;;;5076466;28;19916;-77
2022/10/14 09:43:08;;;;;;;;;;;16.70;99.90;;;;;;5078278;28;19988;-77
2022/10/14 09:45:52;;;;;;;;;;;16.90;99.90;;;;;;5073438;28;20351;-77
2022/10/14 09:48:24;;;;;;;;;;;17.00;99.90;;;;;;5057109;28;20398;-77
2022/10/14 09:50:51;;;;;;;;;;;17.20;99.90;;;;;;5074996;28;19916;-76
2022/10/14 09:53:19;;;;;;;;;;;17.20;99.90;;;;;;5060790;28;19924;-77
2022/10/14 09:55:48;;;;;;;;;;;17.00;99.90;;;;;;5045896;28;19923;-77
2022/10/14 09:58:16;;;;;;;;;;;17.10;99.90;;;;;;5044566;28;20023;-76
2022/10/14 10:00:42;;;;;;;;;;;17.10;99.90;;;;;;5041865;28;20431;-77
2022/10/14 10:03:22;;;;;;;;;;;17.10;99.90;;;;;;5058667;28;20179;-76
2022/10/14 10:05:57;;;;;;;;;;;17.50;99.90;;;;;;5055126;28;19932;-76
2022/10/14 10:08:22;;;;;;;;;;;17.50;99.90;;;;;;5060901;28;20371;-76
2022/10/14 10:10:59;;;;;;;;;;;17.50;99.90;;;;;;5040453;28;19916;-76
2022/10/14 10:13:34;;;;;;;;;;;17.70;99.90;;;;;;5065128;28;20259;-76
2022/10/14 10:16:01;;;;;;;;;;;18.10;99.90;;;;;;5065718;28;19961;-76
2022/10/14 10:18:27;;;;;;;;;;;18.60;99.90;;;;;;5073403;28;19916;-76
2022/10/14 10:21:01;;;;;;;;;;;19.00;99.90;;;;;;5065762;28;20426;-76
2022/10/14 10:23:27;;;;;;;;;;;19.10;99.90;;;;;;5047049;28;20054;-76
2022/10/14 10:25:53;;;;;;;;;;;19.70;99.90;;;;;;5040770;28;20008;-76
2022/10/14 10:28:29;;;;;;;;;;;19.60;99.90;;;;;;5070067;28;20018;-75
2022/10/14 10:31:16;;;;;;;;;;;19.50;99.90;;;;;;5066120;28;20511;-76
2022/10/14 10:33:53;;;;;;;;;;;19.10;99.90;;;;;;5049215;28;20488;-76
2022/10/14 10:36:19;;;;;;;;;;;18.70;99.90;;;;;;5066326;28;20504;-76
2022/10/14 10:38:55;;;;;;;;;;;18.00;99.90;;;;;;5047022;28;20019;-77
2022/10/14 10:41:36;;;;;;;;;;;17.90;99.90;;;;;;5063409;28;19940;-76
2022/10/14 10:44:14;;;;;;;;;;;17.80;99.90;;;;;;5078048;28;20375;-76
2022/10/14 10:46:51;;;;;;;;;;;17.70;99.90;;;;;;5044194;28;19969;-76
2022/10/14 10:49:16;;;;;;;;;;;17.70;99.90;;;;;;5062608;28;19921;-76
2022/10/14 10:51:54;;;;;;;;;;;17.50;99.90;;;;;;5074419;28;19927;-76
2022/10/14 10:54:38;;;;;;;;;;;17.40;99.90;;;;;;5067035;28;20015;-76
2022/10/14 10:57:10;;;;;;;;;;;17.30;99.90;;;;;;5043336;28;19923;-76
2022/10/14 10:59:50;;;;;;;;;;;17.00;99.90;;;;;;4691580;28;10000203;-77
2022/10/14 11:02:34;;;;;;;;;;;16.80;99.90;;;;;;5062949;28;19969;-76
2022/10/14 11:05:02;;;;;;;;;;;16.60;99.90;;;;;;5062301;28;20022;-75
2022/10/14 11:13:35;;;;;;;;;;;16.60;99.90;;;;;;5057139;28;19923;-76
2022/10/14 11:16:19;;;;;;;;;;;16.80;99.90;;;;;;5055676;28;19916;-76
2022/10/14 11:18:49;;;;;;;;;;;16.90;99.90;;;;;;5044569;28;19924;-75
2022/10/14 11:21:23;;;;;;;;;;;16.90;99.90;;;;;;5053743;28;22627;-76
2022/10/14 11:24:08;;;;;;;;;;;17.00;99.90;;;;;;5065829;28;19925;-76
2022/10/14 11:26:40;;;;;;;;;;;17.10;99.90;;;;;;5061441;28;20276;-76
2022/10/14 11:29:18;;;;;;;;;;;17.00;99.90;;;;;;5078304;28;19924;-77
2022/10/14 11:32:10;;;;;;;;;;;16.90;99.90;;;;;;5080129;28;19916;-76
2022/10/14 11:34:36;;;;;;;;;;;16.60;99.90;;;;;;5061543;28;19930;-76
2022/10/14 11:37:40;;;;;;;;;;;16.30;99.90;;;;;;5058780;28;20381;-76
2022/10/14 11:40:05;;;;;;;;;;;16.10;99.90;;;;;;5035661;28;19916;-75
2022/10/14 11:42:40;;;;;;;;;;;15.80;99.90;;;;;;5006897;28;19917;-75
2022/10/14 11:45:25;;;;;;;;;;;15.60;99.90;;;;;;5019150;28;20304;-76
2022/10/14 11:47:52;;;;;;;;;;;15.60;99.90;;;;;;5003448;28;20063;-76
2022/10/14 11:50:22;;;;;;;;;;;15.60;99.90;;;;;;5053781;28;19928;-76
2022/10/14 11:52:52;;;;;;;;;;;15.60;99.90;;;;;;5037217;28;19928;-76
2022/10/14 11:55:20;;;;;;;;;;;15.70;99.90;;;;;;5064098;28;20162;-77
2022/10/14 11:57:52;;;;;;;;;;;15.90;99.90;;;;;;5061739;28;20011;-76
2022/10/14 12:00:20;;;;;;;;;;;16.40;99.90;;;;;;5031051;28;20098;-77
2022/10/14 12:03:07;;;;;;;;;;;17.00;99.90;;;;;;5056359;28;19924;-77
2022/10/14 12:05:32;;;;;;;;;;;17.60;99.90;;;;;;5057644;28;19921;-77
2022/10/14 12:08:17;;;;;;;;;;;18.20;99.90;;;;;;5079975;28;19928;-77
2022/10/14 12:10:51;;;;;;;;;;;18.50;99.90;;;;;;5042182;28;19923;-77
2022/10/14 12:13:18;;;;;;;;;;;18.70;99.90;;;;;;5047133;28;19956;-77
2022/10/14 12:15:47;;;;;;;;;;;18.60;99.90;;;;;;5063981;28;19963;-77
2022/10/14 12:18:13;;;;;;;;;;;18.40;99.90;;;;;;5059644;28;20376;-76
2022/10/14 12:20:54;;;;;;;;;;;18.30;99.90;;;;;;5078675;28;19920;-77
2022/10/14 12:23:28;;;;;;;;;;;18.30;99.90;;;;;;5057205;28;19917;-77
2022/10/14 12:26:12;;;;;;;;;;;18.30;99.90;;;;;;5072561;28;19920;-77
2022/10/14 12:28:38;;;;;;;;;;;18.30;99.90;;;;;;5062293;28;19976;-78
2022/10/14 12:31:24;;;;;;;;;;;18.20;99.90;;;;;;5050237;28;20382;-76
2022/10/14 12:34:08;;;;;;;;;;;18.10;99.90;;;;;;5059964;28;19913;-77
2022/10/14 12:36:34;;;;;;;;;;;17.90;99.90;;;;;;5054650;28;19940;-77
2022/10/14 12:39:19;;;;;;;;;;;17.80;99.90;;;;;;5054516;28;20313;-77
2022/10/14 12:41:54;;;;;;;;;;;17.80;99.90;;;;;;5046528;28;19912;-77
2022/10/14 12:44:21;;;;;;;;;;;17.70;99.90;;;;;;5068545;28;20375;-77
2022/10/14 12:46:48;;;;;;;;;;;17.80;99.90;;;;;;5068611;28;19925;-77
2022/10/14 12:49:28;;;;;;;;;;;17.90;99.90;;;;;;5052322;28;19957;-78
2022/10/14 12:51:54;;;;;;;;;;;17.80;99.90;;;;;;4690958;28;9999957;-77
2022/10/14 12:54:20;;;;;;;;;;;17.60;99.90;;;;;;5033279;28;19963;-77
2022/10/14 12:56:57;;;;;;;;;;;17.40;99.90;;;;;;5044213;28;19921;-77
2022/10/14 12:59:30;;;;;;;;;;;17.20;99.90;;;;;;5042586;28;19908;-77
2022/10/14 13:01:57;;;;;;;;;;;17.20;99.90;;;;;;5076804;22;19928;-77
2022/10/14 13:04:23;;;;;;;;;;;17.40;99.90;;;;;;5063048;28;20330;-77
2022/10/14 13:07:08;;;;;;;;;;;17.50;99.90;;;;;;5090891;28;20011;-77
2022/10/14 13:09:34;;;;;;;;;;;17.60;99.90;;;;;;5090301;28;20511;-77
2022/10/14 13:12:00;;;;;;;;;;;17.60;99.90;;;;;;5101733;28;19951;-77
2022/10/14 13:14:26;;;;;;;;;;;17.60;99.90;;;;;;4728896;28;10000232;-77
2022/10/14 13:16:52;;;;;;;;;;;17.60;99.90;;;;;;5077477;28;19916;-76
2022/10/14 13:19:32;;;;;;;;;;;17.50;99.90;;;;;;5086657;28;20029;-77
2022/10/14 13:21:59;;;;;;;;;;;17.50;99.90;;;;;;5101048;28;19923;-76
2022/10/14 13:24:26;;;;;;;;;;;17.50;99.90;;;;;;5069583;28;20275;-76
2022/10/14 13:26:52;;;;;;;;;;;17.40;99.90;;;;;;5084426;28;19919;-76
2022/10/14 13:29:29;;;;;;;;;;;17.20;99.90;;;;;;5088924;28;19919;-77
2022/10/14 13:32:10;;;;;;;;;;;17.10;99.90;;;;;;5068590;28;20264;-76
2022/10/14 13:34:49;;;;;;;;;;;16.90;99.90;;;;;;5075588;28;20266;-77
2022/10/14 13:37:27;;;;;;;;;;;16.60;99.90;;;;;;5080652;28;19920;-77
2022/10/14 13:39:52;;;;;;;;;;;16.40;99.90;;;;;;5095883;28;19923;-76
2022/10/14 13:42:27;;;;;;;;;;;16.40;99.90;;;;;;5074619;28;20374;-76
2022/10/14 13:44:56;;;;;;;;;;;16.40;99.90;;;;;;5088999;28;19974;-77
2022/10/14 13:47:21;;;;;;;;;;;16.40;99.90;;;;;;5086212;28;19915;-77
2022/10/14 13:49:48;;;;;;;;;;;16.40;99.90;;;;;;5076065;28;19946;-77
2022/10/14 13:52:23;;;;;;;;;;;16.40;99.90;;;;;;5073663;28;19957;-77
2022/10/14 13:55:03;;;;;;;;;;;16.40;99.90;;;;;;5086055;28;19916;-76
2022/10/14 13:57:29;;;;;;;;;;;16.30;99.90;;;;;;5104173;28;20432;-76
2022/10/14 13:59:54;;;;;;;;;;;16.20;99.90;;;;;;5078852;28;20167;-77
2022/10/14 14:02:23;;;;;;;;;;;16.20;99.90;;;;;;5084955;28;19978;-77
2022/10/14 14:04:50;;;;;;;;;;;16.30;99.90;;;;;;5064503;28;19912;-77
2022/10/14 14:07:18;;;;;;;;;;;16.40;99.90;;;;;;5083660;28;19920;-77
2022/10/14 14:09:47;;;;;;;;;;;16.60;99.90;;;;;;5074640;28;19931;-76
2022/10/14 14:12:12;;;;;;;;;;;16.70;99.90;;;;;;5097590;28;20003;-77
2022/10/14 14:14:42;;;;;;;;;;;16.70;99.90;;;;;;5077263;28;20008;-77
2022/10/14 14:17:18;;;;;;;;;;;16.60;99.90;;;;;;5078831;28;20018;-77
2022/10/14 14:19:45;;;;;;;;;;;16.60;99.90;;;;;;5099563;28;19916;-76
2022/10/14 14:22:23;;;;;;;;;;;16.50;99.90;;;;;;5079386;28;20226;-77
2022/10/14 14:24:49;;;;;;;;;;;16.50;99.90;;;;;;5073009;28;19916;-76
2022/10/14 14:27:22;;;;;;;;;;;16.60;99.90;;;;;;5064409;28;19916;-77
2022/10/14 14:29:49;;;;;;;;;;;16.70;99.90;;;;;;5081321;28;20014;-78
2022/10/14 14:32:16;;;;;;;;;;;16.60;99.90;;;;;;5092010;28;20498;-77
2022/10/14 14:34:42;;;;;;;;;;;16.60;99.90;;;;;;5071775;28;19981;-77